Kenosha Regional Airport
KENW : now visible

Airfield :











YOU CAN JOIN US ON...

 
LOGIN :

Register | Disclaimer

   EN    FR    IT 

 









Legend :    VFR   Marginal VFR   IFR   Intensive IFR   Very Intensive IFR
Visi :
Ceiling :
>= 8 km
>= 3000ft
5 to 8 km
1000 to 3000 ft
1500m to 5 km
500 to 1000 ft
800 to 1500m
200 to 500 ft
< 800m
< 200 ft
Symbols :   Thunderstorms  Fog  Heavy snow  Heavy precipitations  Wind > 20 kt






- Airport Elevation : 742 ft


KENW - Kenosha Regional

CURRENT METAR :
  • 081853Z 30005KT 10SM SCT028 SCT033 19/11 A2972 RMK AO2 RAB1754E10 SLP064 P0000 T01890111

EXPIRED METARs :
  • 081753Z 28006KT 10SM BKN090 OVC110 17/11 A2976 RMK AO2 SLP078 T01720111 10172 20100 55007
  • 081653Z 21006KT 9SM CLR 17/11 A2974 RMK AO2 SLP072 T01720111
  • 081610Z 22005KT 8SM SCT011 16/11 A2977 RMK AO2 T01560106

TAF KENW
Valid from the 08 at 18:00 until the 09 at 18:00 UTC


081720Z 0818/0918 24009KT P6SM BKN050
FM082000 27012KT P6SM VCSH BKN050
FM082200 31012G22KT 6SM -RA BR BKN040
FM090300 30013KT P6SM SCT120
FM091400 31017G27KT P6SM SCT050



MET'MAP, your aeronautical weather chart ! - Copyright ORBIFLY December 2007 - Disclaimer

ORBIFLY MET'MAP TEAM :

Programming & Development : Alexandra Zaïnal
Concept & original design : Baudouin d'Aumeries
Assistance for programming : Marc-Olivier Méhu
Technical & hardware support : Manuel Goepfert

Contact : metmap@orbifly.com




SOURCES & CREDITS :

   NOAA       Earth
Advisory